Fernandina Beach, FL (32034)

10:15 PM EDT on August 27, 2015 (GMT -0400)
Ocean Reach | | Change Station
CLOSE
Current Station
Personal Weather Station
Location: Fernandina Beach, FL
Elevation: 30 ft
Nearby Weather Stations

Elev 30 ft 30.63 °N, 81.45 °W | Updated 55 seconds ago

Clear
Clear
78.4 °F
Feels Like 81 °F
N
0.0
Wind Variable Wind from SSW

Today
High -- | Low -- °F
--% Chance of Precip.
Yesterday
High -- | Low -- °F
Precip. -- in
6:59 AM 7:55 PM
Waxing Gibbous, 96% visible
Pressure 29.96 in
Visibility 10.0 miles
Clouds Clear
Heat Index 81 °F
Dew Point 74 °F
Humidity 85%
Rainfall 0.00 in
Snow Depth Not available.
UV 0 out of 12
Pollen 7.20 out of 12
Air Quality Not available.
Flu Activity Not available.
METAR KFHB 280155Z AUTO 00000KT 10SM CLR 28/24 A2996 RMK AO1 LTG DSNT W
Pressure 29.96 in
Visibility 10.0 miles
Clouds Clear
Heat Index 81 °F
Dew Point 74 °F
Humidity 85%
Rainfall 0.00 in
Snow Depth Not available.
UV 0 out of 12
Pollen 7.20 out of 12
Air Quality Not available.
Flu Activity Not available.
METAR KFHB 280155Z AUTO 00000KT 10SM CLR 28/24 A2996 RMK AO1 LTG DSNT W
Tropical Storm Erika remains unorganized as it travels through the northeast Caribbean Sea. The storm has already dumped 5-10 inches of rain on the Lesser Antilles, with more rain anticipated for Puerto Rico and Hispaniola. This will be much-needed rain for those islands. Erika is not forecast to reach hurricane strength until Monday when it curves northward along the east coast of Florida. Follow the live blog

10-Day Weather Forecast

×

Almanac

Astronomy

Aug. 27, 2015 Rise Set
Actual Time
Civil Twilight
Nautical Twilight
Astronomical Twilight
Moon
Length of Visible Light
Length of Day
Tomorrow will be .
, % of the Moon is Illuminated

Today's Extremes

State Highs State Lows

Community

WunderPhotos

Upload Photos

1,850,301 photos uploaded!

WunderBlogs® & News

Nearby

Air Quality

  Air Quality AQ Index Pollutant
Not available.

Snow Depth

Station Depth Elevation

Earthquake Activity

City Distance Mag. Time & Date
Minimum magnitude displayed is 2.5.

Coastal Water Temperatures

Place Temperature

Stations

Nearby Weather Stations

Station Location Temp. Windchill Dew Point Humidity Wind Precip. Elev Updated Type